Time;durP1;ratioP1;P1;durP2;ratioP2;P2;SDS_P1;SDS_P2;PMS_P1;PMS_P2;Temp;Humidity;BMP_temperature;BMP_pressure;BME280_temperature;BME280_humidity;BME280_pressure;Samples;Min_cycle;Max_cycle;Signal;HPM_P1;HPM_P2
2023/06/10 00:02:57;;;;;;;4.50;4.08;;;19.70;99.90;;;;;;1947044;72;22322;-79
2023/06/10 00:05:49;;;;;;;5.20;4.80;;;19.60;99.90;;;;;;1874726;75;21087;-79
2023/06/10 00:11:18;;;;;;;6.20;4.70;;;19.50;99.90;;;;;;1951282;72;22205;-79
2023/06/10 00:14:10;;;;;;;8.98;4.65;;;19.50;99.90;;;;;;1910999;74;21113;-79
2023/06/10 00:17:02;;;;;;;5.53;4.15;;;19.50;99.90;;;;;;1928721;74;21581;-79
2023/06/10 00:19:53;;;;;;;4.83;3.98;;;19.60;99.90;;;;;;1918692;74;21109;-79
2023/06/10 00:22:46;;;;;;;4.28;3.85;;;19.60;99.90;;;;;;1896257;74;21088;-79
2023/06/10 00:25:37;;;;;;;4.40;4.00;;;19.60;99.90;;;;;;1928589;74;21127;-79
2023/06/10 00:31:09;;;;;;;5.08;4.28;;;19.50;99.90;;;;;;1959826;72;22240;-79
2023/06/10 00:34:02;;;;;;;6.37;4.40;;;19.50;99.90;;;;;;1935797;73;21121;-79
2023/06/10 00:36:54;;;;;;;5.37;4.40;;;19.60;99.90;;;;;;1939787;73;21070;-79
2023/06/10 00:39:46;;;;;;;8.78;4.75;;;19.50;99.90;;;;;;1929620;73;21113;-79
2023/06/10 00:42:37;;;;;;;6.22;4.30;;;19.50;99.90;;;;;;1916946;75;21167;-80
2023/06/10 00:45:29;;;;;;;4.25;3.67;;;19.50;99.90;;;;;;1937887;73;21079;-79
2023/06/10 00:51:00;;;;;;;6.28;4.53;;;19.60;99.90;;;;;;1920267;72;22230;-79
2023/06/10 00:53:53;;;;;;;5.10;4.50;;;19.50;99.90;;;;;;1913454;73;21082;-79
2023/06/10 00:56:44;;;;;;;5.65;5.10;;;19.50;99.90;;;;;;1915961;75;21047;-79
2023/06/10 00:59:36;;;;;;;5.72;4.50;;;19.50;99.90;;;;;;1936909;73;21101;-79
2023/06/10 01:02:29;;;;;;;5.35;4.60;;;19.50;99.90;;;;;;1917724;73;21117;-79
2023/06/10 01:08:08;;;;;;;4.90;3.95;;;19.50;99.90;;;;;;1947430;72;22165;-79
2023/06/10 01:11:02;;;;;;;5.17;4.10;;;19.50;99.90;;;;;;1888095;74;21184;-79
2023/06/10 01:16:35;;;;;;;4.40;4.00;;;19.50;99.90;;;;;;1958559;72;22326;-79
2023/06/10 01:19:28;;;;;;;4.33;3.92;;;19.50;99.90;;;;;;1917617;73;21087;-80
2023/06/10 01:22:22;;;;;;;4.50;3.85;;;19.50;99.90;;;;;;1932322;73;21177;-80
2023/06/10 01:25:15;;;;;;;6.00;4.60;;;19.50;99.90;;;;;;1922604;73;21090;-80
2023/06/10 01:52:22;;;;;;;6.10;4.92;;;19.40;99.90;;;;;;1973568;72;22158;-79
2023/06/10 01:58:03;;;;;;;6.33;4.72;;;19.40;99.90;;;;;;1943781;73;22176;-79
2023/06/10 02:00:54;;;;;;;5.55;4.90;;;19.50;99.90;;;;;;1922325;73;21214;-79
2023/06/10 02:06:28;;;;;;;5.05;4.50;;;19.40;99.90;;;;;;1931774;72;22155;-79
2023/06/10 02:09:19;;;;;;;5.67;4.78;;;19.40;99.90;;;;;;1905565;75;21556;-79
2023/06/10 02:12:12;;;;;;;7.47;5.00;;;19.40;99.90;;;;;;1891186;75;21110;-79
2023/06/10 02:15:06;;;;;;;5.40;4.87;;;19.30;99.90;;;;;;1898754;75;21106;-79
2023/06/10 02:17:59;;;;;;;9.53;7.33;;;19.30;99.90;;;;;;1916216;74;21148;-79
2023/06/10 02:20:51;;;;;;;6.85;5.22;;;19.20;99.90;;;;;;1898544;75;21205;-79
2023/06/10 02:23:43;;;;;;;7.08;4.90;;;19.30;99.90;;;;;;1887728;75;21125;-79
2023/06/10 02:31:53;;;;;;;5.75;5.25;;;19.00;99.90;;;;;;1939318;72;22150;-79
2023/06/10 02:34:45;;;;;;;5.40;4.90;;;19.00;99.90;;;;;;1892224;75;21119;-79
2023/06/10 02:37:37;;;;;;;7.03;5.50;;;19.00;99.90;;;;;;1885706;75;21173;-79
2023/06/10 02:40:29;;;;;;;7.05;5.22;;;19.00;99.90;;;;;;1894220;75;21058;-80
2023/06/10 02:46:02;;;;;;;5.15;4.67;;;18.90;99.90;;;;;;1949453;72;22178;-79
2023/06/10 02:51:33;;;;;;;5.70;5.15;;;18.90;99.90;;;;;;1926635;72;22205;-79
2023/06/10 02:57:03;;;;;;;4.65;4.20;;;18.90;99.90;;;;;;1949554;72;22599;-79
2023/06/10 02:59:56;;;;;;;5.55;4.42;;;18.90;99.90;;;;;;1935202;73;21136;-79
2023/06/10 03:02:48;;;;;;;5.50;4.37;;;18.90;99.90;;;;;;1927508;73;21109;-79
2023/06/10 03:05:41;;;;;;;5.05;4.45;;;19.00;99.90;;;;;;1930956;73;21110;-79
2023/06/10 03:11:11;;;;;;;5.85;4.37;;;18.90;99.90;;;;;;1951581;72;22238;-79
2023/06/10 03:14:03;;;;;;;4.53;4.08;;;19.00;99.90;;;;;;1916701;75;21112;-79
2023/06/10 03:16:55;;;;;;;4.95;4.17;;;18.90;99.90;;;;;;1923945;73;21190;-79
2023/06/10 03:22:27;;;;;;;6.78;4.35;;;18.70;99.90;;;;;;1947802;72;22168;-79
2023/06/10 03:25:20;;;;;;;4.62;3.90;;;18.70;99.90;;;;;;1924667;73;21573;-79
2023/06/10 03:30:52;;;;;;;7.92;4.10;;;18.70;99.90;;;;;;1950473;72;22138;-79
2023/06/10 03:33:45;;;;;;;6.12;3.92;;;18.70;99.90;;;;;;1891131;75;21176;-79
2023/06/10 03:36:41;;;;;;;8.28;3.87;;;18.70;99.90;;;;;;1899879;75;21476;-80
2023/06/10 03:42:10;;;;;;;5.50;4.40;;;18.80;99.90;;;;;;1933399;72;22146;-79
2023/06/10 03:45:02;;;;;;;4.92;4.42;;;18.80;99.90;;;;;;1899544;75;21558;-79
2023/06/10 03:50:33;;;;;;;6.10;4.90;;;18.70;99.90;;;;;;1929592;72;22342;-78
2023/06/10 03:56:04;;;;;;;5.28;4.03;;;18.70;99.90;;;;;;1923665;72;22293;-79
2023/06/10 04:01:41;;;;;;;5.90;4.80;;;18.80;99.90;;;;;;1951871;72;22178;-79
2023/06/10 04:04:31;;;;;;;6.70;5.00;;;18.70;99.90;;;;;;1938934;73;21344;-79
2023/06/10 04:10:10;;;;;;;7.28;4.28;;;18.70;99.90;;;;;;1935557;72;22194;-78
2023/06/10 04:13:02;;;;;;;5.55;4.80;;;18.70;99.90;;;;;;1893869;75;21193;-79
2023/06/10 04:15:55;;;;;;;7.37;5.60;;;18.70;99.90;;;;;;1896201;75;21626;-79
2023/06/10 04:18:46;;;;;;;6.47;5.10;;;18.80;99.90;;;;;;1892132;75;21167;-78
2023/06/10 04:21:38;;;;;;;6.17;5.40;;;18.90;99.90;;;;;;1905515;75;21093;-79
2023/06/10 04:27:11;;;;;;;6.25;5.25;;;19.10;99.90;;;;;;1935736;72;22254;-78
2023/06/10 04:32:42;;;;;;;5.95;5.35;;;19.20;99.90;;;;;;1942076;72;23184;-79
2023/06/10 04:35:35;;;;;;;7.45;5.62;;;19.10;99.90;;;;;;1903591;75;21119;-79
2023/06/10 04:38:28;;;;;;;6.12;5.40;;;19.10;99.90;;;;;;1889074;75;21180;-79
2023/06/10 04:41:22;;;;;;;5.62;5.08;;;19.10;99.90;;;;;;1892734;75;21128;-79
2023/06/10 04:44:14;;;;;;;8.28;5.20;;;19.10;99.90;;;;;;1879032;75;21144;-79
2023/06/10 04:49:47;;;;;;;6.12;5.53;;;19.00;99.90;;;;;;1936844;72;22623;-79
2023/06/10 04:52:41;;;;;;;7.35;5.80;;;19.00;99.90;;;;;;1890289;75;21561;-79
2023/06/10 04:55:33;;;;;;;5.78;5.10;;;19.00;99.90;;;;;;1904983;75;21105;-79
2023/06/10 05:01:10;;;;;;;5.62;4.67;;;19.20;99.90;;;;;;1949638;72;22192;-79
2023/06/10 05:04:02;;;;;;;9.15;4.80;;;19.30;99.90;;;;;;1928862;73;21385;-79
2023/06/10 05:06:54;;;;;;;6.95;5.30;;;19.40;99.90;;;;;;1925417;73;21059;-79
2023/06/10 05:09:46;;;;;;;6.28;5.28;;;19.50;99.90;;;;;;1935657;73;21102;-79
2023/06/10 05:12:38;;;;;;;6.50;5.70;;;19.50;99.90;;;;;;1920423;73;21177;-79
2023/06/10 05:15:31;;;;;;;8.13;5.60;;;19.50;99.90;;;;;;1928837;73;21063;-79
2023/06/10 05:21:00;;;;;;;6.05;5.45;;;19.50;99.90;;;;;;1936253;72;22285;-79
2023/06/10 05:23:52;;;;;;;5.83;5.22;;;19.50;99.90;;;;;;1887661;75;21110;-79
2023/06/10 05:26:44;;;;;;;7.03;5.55;;;19.50;99.90;;;;;;1904500;75;21142;-79
2023/06/10 05:29:36;;;;;;;5.87;5.22;;;19.60;99.90;;;;;;1899302;75;21676;-79
2023/06/10 05:35:08;;;;;;;6.90;5.33;;;19.80;99.90;;;;;;1947216;72;22417;-79
2023/06/10 05:40:40;;;;;;;7.83;5.42;;;19.90;99.90;;;;;;1942235;72;22237;-79
2023/06/10 05:46:10;;;;;;;7.78;5.45;;;20.00;99.90;;;;;;1963120;72;22237;-79
2023/06/10 05:51:40;;;;;;;7.37;5.78;;;20.10;99.90;;;;;;1937064;72;22257;-82
2023/06/10 05:54:31;;;;;;;5.83;5.30;;;20.10;99.90;;;;;;1900544;74;21625;-81
2023/06/10 05:57:23;;;;;;;6.90;5.35;;;20.10;99.90;;;;;;1911346;75;21102;-78
2023/06/10 06:00:19;;;;;;;6.97;5.25;;;20.10;99.90;;;;;;1894020;75;21118;-78
2023/06/10 06:05:53;;;;;;;6.03;5.37;;;20.10;99.90;;;;;;1932850;72;22182;-80
2023/06/10 06:11:26;;;;;;;5.40;4.80;;;20.30;99.90;;;;;;1923582;72;22223;-80
2023/06/10 06:14:18;;;;;;;7.15;5.70;;;20.40;99.90;;;;;;1904486;75;21133;-80
2023/06/10 06:19:49;;;;;;;6.45;5.55;;;20.60;99.90;;;;;;1931599;72;22311;-80
2023/06/10 06:22:40;;;;;;;6.10;5.35;;;20.70;99.90;;;;;;1912341;75;21111;-80
2023/06/10 06:25:32;;;;;;;6.42;5.80;;;20.80;99.90;;;;;;1911356;75;21161;-80
2023/06/10 06:31:04;;;;;;;7.75;5.25;;;20.90;99.90;;;;;;1965798;72;22212;-80
2023/06/10 06:36:34;;;;;;;6.87;5.83;;;21.10;99.90;;;;;;1920516;72;22220;-80
2023/06/10 06:42:07;;;;;;;7.53;5.60;;;21.20;99.90;;;;;;1946481;72;22193;-81
2023/06/10 06:45:08;;;;;;;7.55;5.40;;;21.20;99.90;;;;;;1903548;75;21530;-79
2023/06/10 06:50:41;;;;;;;6.10;5.30;;;21.30;99.90;;;;;;1938468;72;22176;-78
2023/06/10 06:56:12;;;;;;;6.60;5.42;;;21.40;99.90;;;;;;1951057;72;22173;-78
2023/06/10 06:59:04;;;;;;;8.95;5.67;;;21.50;99.90;;;;;;1904620;74;21092;-78
2023/06/10 07:01:55;;;;;;;6.40;5.72;;;21.60;99.90;;;;;;1917538;74;21082;-80
2023/06/10 07:04:48;;;;;;;6.15;5.33;;;21.70;99.90;;;;;;1912845;74;21091;-75
2023/06/10 07:07:40;;;;;;;9.03;5.65;;;21.70;99.90;;;;;;1921416;74;21059;-78
2023/06/10 07:13:11;;;;;;;9.78;5.65;;;21.70;99.90;;;;;;1937495;72;22172;-77
2023/06/10 07:16:05;;;;;;;6.85;5.65;;;21.80;99.90;;;;;;1906029;75;21155;-78
2023/06/10 07:18:56;;;;;;;10.05;5.53;;;21.90;99.90;;;;;;1895543;75;21144;-77
2023/06/10 07:24:27;;;;;;;9.25;5.65;;;21.70;99.90;;;;;;1924878;74;22161;-79
2023/06/10 07:27:18;;;;;;;5.58;4.97;;;21.70;99.90;;;;;;1884113;75;21182;-77
2023/06/10 07:30:11;;;;;;;6.53;5.83;;;21.90;99.90;;;;;;1903506;75;21136;-76
2023/06/10 07:33:02;;;;;;;8.83;6.40;;;22.00;99.90;;;;;;1883515;76;21103;-76
2023/06/10 07:35:54;;;;;;;6.28;5.62;;;22.00;99.90;;;;;;1914793;75;21043;-76
2023/06/10 07:41:26;;;;;;;7.53;6.12;;;22.00;99.90;;;;;;1939599;72;22163;-77
2023/06/10 07:44:17;;;;;;;6.20;5.53;;;22.00;99.90;;;;;;1876467;75;21639;-77
2023/06/10 07:47:09;;;;;;;7.15;5.40;;;22.00;99.90;;;;;;1879614;75;21090;-77
2023/06/10 07:50:00;;;;;;;6.22;5.22;;;21.90;99.90;;;;;;1882337;75;21052;-77
2023/06/10 07:52:51;;;;;;;9.48;6.12;;;21.90;99.90;;;;;;1892431;75;21123;-77
2023/06/10 07:55:43;;;;;;;6.15;5.55;;;21.80;99.90;;;;;;1872054;75;21118;-76
2023/06/10 08:11:56;;;;;;;6.00;4.53;;;21.60;99.90;;;;;;1958228;72;22174;-76
2023/06/10 08:14:47;;;;;;;6.20;4.90;;;21.80;99.90;;;;;;1916832;75;21422;-76
2023/06/10 08:17:40;;;;;;;5.35;4.17;;;22.00;99.90;;;;;;1921777;73;21113;-76
2023/06/10 08:20:32;;;;;;;5.22;4.72;;;22.00;99.90;;;;;;1926687;73;21244;-77
2023/06/10 08:23:23;;;;;;;5.17;4.42;;;22.10;99.90;;;;;;1915468;75;21212;-77
2023/06/10 08:26:15;;;;;;;5.00;4.47;;;22.10;99.90;;;;;;1917492;75;21087;-77
2023/06/10 08:29:16;;;;;;;7.35;4.50;;;22.20;99.90;;;;;;1916945;75;21116;-76
2023/06/10 08:32:08;;;;;;;5.33;4.28;;;22.30;99.90;;;;;;1939188;73;21079;-77
2023/06/10 08:35:00;;;;;;;8.33;4.25;;;22.30;99.90;;;;;;1916693;75;21118;-77
2023/06/10 08:37:51;;;;;;;4.47;4.08;;;22.40;99.90;;;;;;1916628;75;21102;-76
2023/06/10 08:40:43;;;;;;;4.22;3.83;;;22.40;99.90;;;;;;1916554;75;21155;-76
2023/06/10 08:43:37;;;;;;;6.20;4.20;;;22.30;99.90;;;;;;1916653;75;21536;-77
2023/06/10 08:46:31;;;;;;;4.80;4.20;;;22.30;99.90;;;;;;1939239;73;21098;-77
2023/06/10 08:49:26;;;;;;;5.50;3.87;;;22.60;99.90;;;;;;1917083;75;21097;-76
2023/06/10 08:52:19;;;;;;;4.75;3.90;;;22.80;99.90;;;;;;1916865;75;21156;-77
2023/06/10 08:55:15;;;;;;;4.22;3.83;;;22.70;99.90;;;;;;1916976;75;21052;-77
2023/06/10 08:58:07;;;;;;;4.45;3.77;;;22.80;99.90;;;;;;1916857;75;21212;-77
2023/06/10 09:00:59;;;;;;;4.28;3.72;;;23.00;99.90;;;;;;1916798;75;21118;-77
2023/06/10 09:03:51;;;;;;;5.83;3.75;;;23.10;99.90;;;;;;1916864;75;21035;-77
2023/06/10 09:06:43;;;;;;;3.98;3.58;;;23.30;99.90;;;;;;1916721;75;21099;-77
2023/06/10 09:09:36;;;;;;;4.83;3.45;;;23.20;99.90;;;;;;1916762;75;21135;-77
2023/06/10 09:12:28;;;;;;;4.17;3.50;;;23.20;99.90;;;;;;1916636;75;21235;-77
2023/06/10 09:15:19;;;;;;;3.20;2.90;;;23.10;99.90;;;;;;1916819;75;21178;-77
2023/06/10 09:18:11;;;;;;;3.77;3.33;;;23.30;99.90;;;;;;1916849;75;21160;-77
2023/06/10 09:21:03;;;;;;;5.05;3.65;;;23.30;99.90;;;;;;1916837;75;21168;-77
2023/06/10 09:23:54;;;;;;;4.10;3.10;;;23.30;99.90;;;;;;1915977;74;21066;-76
2023/06/10 09:26:46;;;;;;;3.83;3.52;;;23.30;99.90;;;;;;1915923;75;21175;-77
2023/06/10 09:29:48;;;;;;;4.72;3.45;;;23.40;99.90;;;;;;1930721;73;21184;-77
2023/06/10 09:32:40;;;;;;;4.87;3.12;;;23.40;99.90;;;;;;1916224;75;21131;-77
2023/06/10 09:35:33;;;;;;;5.03;3.30;;;23.50;99.90;;;;;;1922165;73;21098;-77
2023/06/10 09:38:26;;;;;;;4.42;3.45;;;23.30;99.90;;;;;;1949111;73;21059;-77
2023/06/10 09:41:17;;;;;;;3.83;3.27;;;23.30;99.90;;;;;;1916107;75;21095;-77
2023/06/10 09:44:14;;;;;;;5.03;2.70;;;23.40;99.90;;;;;;1916179;75;21095;-77
2023/06/10 09:47:07;;;;;;;3.62;2.83;;;23.60;99.90;;;;;;1916191;75;21189;-77
2023/06/10 09:49:58;;;;;;;5.17;2.95;;;23.70;99.90;;;;;;1916321;75;21104;-77
2023/06/10 09:52:49;;;;;;;4.05;2.87;;;23.90;99.90;;;;;;1916066;75;21099;-77
2023/06/10 09:55:42;;;;;;;6.37;3.87;;;24.10;99.90;;;;;;1916134;75;21102;-77
2023/06/10 09:58:38;;;;;;;6.72;3.40;;;24.20;99.90;;;;;;1916049;75;21103;-77
2023/06/10 10:01:31;;;;;;;6.10;2.90;;;24.30;99.90;;;;;;1915981;75;21156;-78
2023/06/10 10:04:26;;;;;;;4.10;2.50;;;24.30;99.90;;;;;;1916158;75;21101;-77
2023/06/10 10:07:18;;;;;;;5.50;2.58;;;24.40;99.90;;;;;;1916139;75;21167;-77
2023/06/10 10:10:11;;;;;;;4.17;2.67;;;24.40;99.90;;;;;;1931179;73;21086;-77
2023/06/10 10:13:03;;;;;;;4.83;2.50;;;24.60;99.90;;;;;;1909125;73;21119;-78
2023/06/10 10:15:56;;;;;;;2.75;2.47;;;24.80;99.90;;;;;;1908416;74;21167;-79
2023/06/10 10:18:52;;;;;;;4.25;2.33;;;24.70;99.90;;;;;;1914804;74;21205;-79
2023/06/10 10:21:48;;;;;;;3.15;2.00;;;24.60;99.90;;;;;;1903769;75;21103;-78
2023/06/10 10:24:42;;;;;;;3.62;2.12;;;24.50;99.90;;;;;;1915486;75;21555;-78
2023/06/10 10:27:36;;;;;;;2.42;1.67;;;24.50;99.90;;;;;;1918974;73;21176;-78
2023/06/10 10:30:30;;;;;;;2.35;1.55;;;24.70;99.90;;;;;;1915341;75;21103;-78
2023/06/10 10:33:25;;;;;;;2.90;1.45;;;24.70;99.90;;;;;;1903006;75;21179;-78
2023/06/10 10:36:19;;;;;;;2.42;1.50;;;24.70;99.90;;;;;;1932383;73;21184;-78
2023/06/10 10:39:12;;;;;;;1.90;1.57;;;24.80;99.90;;;;;;1916008;75;21102;-78
2023/06/10 10:42:04;;;;;;;1.72;1.40;;;25.10;99.90;;;;;;1916166;75;21545;-78
2023/06/10 10:44:56;;;;;;;2.75;1.60;;;25.30;99.90;;;;;;1925709;74;21177;-78
2023/06/10 10:47:50;;;;;;;2.10;1.60;;;25.30;99.90;;;;;;1903502;75;21184;-78
2023/06/10 10:50:42;;;;;;;4.00;1.50;;;25.50;99.90;;;;;;1915888;75;21100;-79
2023/06/10 10:53:34;;;;;;;2.58;1.42;;;25.40;99.90;;;;;;1924675;73;21127;-78
2023/06/10 10:56:30;;;;;;;1.27;1.10;;;25.50;99.90;;;;;;1911355;74;21080;-78
2023/06/10 10:59:22;;;;;;;2.17;1.30;;;25.50;99.90;;;;;;1903629;75;21139;-78
2023/06/10 11:02:18;;;;;;;2.98;1.30;;;25.50;99.90;;;;;;1904046;75;21156;-79
2023/06/10 11:05:12;;;;;;;2.47;1.50;;;25.70;99.90;;;;;;1903766;75;21059;-78
2023/06/10 11:08:04;;;;;;;1.80;1.20;;;25.80;99.90;;;;;;1933902;74;21534;-78
2023/06/10 11:10:56;;;;;;;2.08;1.15;;;26.00;99.90;;;;;;1912052;74;21108;-78
2023/06/10 11:14:11;;;;;;;1.52;1.00;;;26.00;99.90;;;;;;1916018;74;21117;-79
2023/06/10 11:17:04;;;;;;;2.08;0.98;;;25.90;99.90;;;;;;1934488;73;21113;-79
2023/06/10 11:19:57;;;;;;;1.15;0.80;;;25.80;99.90;;;;;;1931243;73;21166;-78
2023/06/10 11:23:01;;;;;;;1.42;1.00;;;25.90;99.90;;;;;;1917107;73;21553;-79
2023/06/10 11:25:54;;;;;;;2.00;1.10;;;25.90;99.90;;;;;;1915879;75;21127;-79
2023/06/10 11:29:15;;;;;;;1.37;1.00;;;25.80;99.90;;;;;;1918011;73;21177;-79
2023/06/10 11:32:07;;;;;;;1.07;0.90;;;25.70;99.90;;;;;;1915144;73;21114;-79
2023/06/10 11:34:59;;;;;;;1.30;1.10;;;25.60;99.90;;;;;;1916190;75;21479;-79
2023/06/10 11:37:51;;;;;;;2.50;0.98;;;25.60;99.90;;;;;;1916062;75;21473;-79
2023/06/10 11:40:49;;;;;;;1.42;0.93;;;25.50;99.90;;;;;;1915752;75;21173;-79
2023/06/10 11:43:43;;;;;;;1.65;1.30;;;25.50;99.90;;;;;;1915763;75;21535;-79
2023/06/10 11:46:36;;;;;;;1.35;1.00;;;25.60;99.90;;;;;;1916049;75;21608;-79
2023/06/10 11:49:27;;;;;;;1.60;0.80;;;25.70;99.90;;;;;;1916289;75;21131;-79
2023/06/10 11:52:20;;;;;;;3.08;1.10;;;25.90;99.90;;;;;;1916078;75;21134;-79
2023/06/10 11:55:11;;;;;;;2.45;1.10;;;26.10;99.90;;;;;;1925002;73;21310;-80
2023/06/10 11:58:03;;;;;;;1.10;0.90;;;26.10;99.90;;;;;;1945888;73;21200;-79
2023/06/10 12:00:57;;;;;;;1.98;1.12;;;26.20;99.90;;;;;;1916184;75;21088;-79
2023/06/10 12:03:50;;;;;;;2.08;1.20;;;26.10;99.90;;;;;;1932889;73;21113;-79
2023/06/10 12:06:43;;;;;;;2.33;1.42;;;26.10;99.90;;;;;;1916311;75;21530;-80
2023/06/10 12:09:35;;;;;;;1.40;1.20;;;26.30;99.90;;;;;;1938793;73;21048;-80
2023/06/10 12:12:26;;;;;;;2.83;1.60;;;26.40;99.90;;;;;;1915760;75;21701;-80
2023/06/10 12:15:28;;;;;;;1.47;1.20;;;26.40;99.90;;;;;;1906152;75;21124;-80
2023/06/10 12:18:20;;;;;;;1.55;1.27;;;26.30;99.90;;;;;;1916140;75;21132;-79
2023/06/10 12:21:20;;;;;;;2.05;1.40;;;26.30;99.90;;;;;;1903679;75;21213;-79
2023/06/10 12:24:12;;;;;;;1.62;1.20;;;26.30;99.90;;;;;;1903605;75;21106;-79
2023/06/10 12:27:07;;;;;;;1.40;1.30;;;26.50;99.90;;;;;;1903633;75;21055;-79
2023/06/10 12:30:03;;;;;;;1.02;1.00;;;26.40;99.90;;;;;;1915983;75;21094;-79
2023/06/10 12:32:55;;;;;;;1.55;1.10;;;26.60;99.90;;;;;;1903789;75;21103;-79
2023/06/10 12:35:51;;;;;;;1.92;1.30;;;26.80;99.90;;;;;;1903724;75;21144;-79
2023/06/10 12:38:44;;;;;;;1.67;1.40;;;26.90;99.90;;;;;;1903729;75;21164;-78
2023/06/10 12:41:38;;;;;;;2.77;1.40;;;26.80;99.90;;;;;;1903780;75;21133;-79
2023/06/10 12:44:35;;;;;;;3.47;1.50;;;26.90;99.90;;;;;;1923533;74;21557;-79
2023/06/10 12:47:34;;;;;;;2.12;1.20;;;26.80;99.90;;;;;;1903889;75;21063;-79
2023/06/10 12:50:26;;;;;;;1.65;1.30;;;26.80;99.90;;;;;;1915464;74;21557;-79
2023/06/10 12:53:18;;;;;;;2.50;1.07;;;26.60;99.90;;;;;;1937037;74;21551;-79
2023/06/10 12:56:09;;;;;;;2.12;1.15;;;26.80;99.90;;;;;;1912932;74;21103;-79
2023/06/10 12:59:00;;;;;;;1.45;1.10;;;26.80;99.90;;;;;;1916237;75;21048;-79
2023/06/10 13:01:53;;;;;;;2.80;1.25;;;26.80;99.90;;;;;;1927995;73;21208;-79
2023/06/10 13:04:46;;;;;;;1.72;1.10;;;27.00;99.90;;;;;;1920545;73;21099;-79
2023/06/10 13:07:38;;;;;;;3.02;1.20;;;27.10;99.90;;;;;;1903749;75;21083;-78
2023/06/10 13:10:30;;;;;;;1.50;1.15;;;27.10;99.90;;;;;;1922782;74;21048;-79
2023/06/10 13:13:21;;;;;;;1.50;1.20;;;27.00;99.90;;;;;;1916202;75;21130;-79
2023/06/10 13:16:13;;;;;;;1.87;1.27;;;26.90;99.90;;;;;;1916280;74;21114;-79
2023/06/10 13:19:06;;;;;;;2.37;1.00;;;26.80;99.90;;;;;;1916266;75;21105;-79
2023/06/10 13:21:57;;;;;;;2.27;1.40;;;26.80;99.90;;;;;;1916278;75;21554;-79
2023/06/10 13:24:49;;;;;;;1.22;1.12;;;27.00;99.90;;;;;;1930915;73;21697;-79
2023/06/10 13:27:41;;;;;;;1.77;1.02;;;27.10;99.90;;;;;;1918106;73;21050;-79
2023/06/10 13:30:33;;;;;;;3.80;1.20;;;27.20;99.90;;;;;;1916058;75;21152;-79
2023/06/10 13:33:25;;;;;;;2.85;1.22;;;27.30;99.90;;;;;;1916138;75;21125;-79
2023/06/10 13:36:16;;;;;;;2.98;1.22;;;27.30;99.90;;;;;;1915996;75;21054;-79
2023/06/10 13:39:08;;;;;;;1.45;1.22;;;27.40;99.90;;;;;;1916174;75;21184;-79
2023/06/10 13:42:00;;;;;;;3.15;1.45;;;27.40;99.90;;;;;;1908661;74;21091;-79
2023/06/10 13:44:51;;;;;;;1.25;0.98;;;27.50;99.90;;;;;;1927365;73;21072;-78
2023/06/10 13:47:42;;;;;;;1.82;1.10;;;27.80;99.90;;;;;;1933543;73;21079;-79
2023/06/10 13:50:34;;;;;;;1.10;0.95;;;28.00;99.90;;;;;;1916336;75;21145;-78
2023/06/10 13:53:26;;;;;;;2.70;1.10;;;28.10;99.90;;;;;;1922768;73;21121;-79
2023/06/10 13:56:17;;;;;;;1.42;1.20;;;28.30;99.90;;;;;;1913585;74;21120;-79
2023/06/10 13:59:09;;;;;;;1.22;0.98;;;28.50;99.90;;;;;;1923449;74;21103;-79
2023/06/10 14:02:01;;;;;;;1.67;1.10;;;28.20;99.90;;;;;;1918134;74;21071;-79
2023/06/10 14:04:52;;;;;;;2.27;1.30;;;28.40;99.90;;;;;;1905511;74;21242;-79
2023/06/10 14:07:44;;;;;;;1.35;0.90;;;28.70;99.90;;;;;;1903721;75;21625;-79
2023/06/10 14:10:36;;;;;;;1.57;1.05;;;28.90;99.90;;;;;;1937974;73;21102;-78
2023/06/10 14:13:28;;;;;;;1.37;1.17;;;29.00;99.90;;;;;;1937075;74;21172;-79
2023/06/10 14:16:19;;;;;;;5.10;1.22;;;29.40;99.90;;;;;;1916054;73;21212;-79
2023/06/10 14:19:11;;;;;;;1.07;0.95;;;29.60;99.90;;;;;;1915964;75;21063;-78
2023/06/10 14:22:02;;;;;;;2.27;1.12;;;29.80;99.90;;;;;;1916206;75;21094;-79
2023/06/10 14:24:55;;;;;;;2.62;1.40;;;29.90;99.90;;;;;;1916099;75;21563;-79
2023/06/10 14:27:46;;;;;;;2.80;1.20;;;29.90;99.90;;;;;;1915913;75;21128;-80
2023/06/10 14:30:40;;;;;;;1.17;1.07;;;29.80;99.90;;;;;;1916202;75;21159;-79
2023/06/10 14:33:31;;;;;;;2.52;1.40;;;29.90;99.90;;;;;;1917738;73;21070;-79
2023/06/10 14:36:23;;;;;;;1.35;1.25;;;30.20;99.90;;;;;;1930644;73;21390;-80
2023/06/10 14:39:14;;;;;;;2.10;1.30;;;30.30;99.90;;;;;;1927552;74;21191;-80
2023/06/10 14:42:07;;;;;;;3.20;1.22;;;30.30;99.90;;;;;;1916512;75;21157;-80
2023/06/10 14:44:58;;;;;;;1.47;1.22;;;30.50;99.90;;;;;;1916098;75;21138;-79
2023/06/10 14:47:50;;;;;;;2.22;1.15;;;30.50;99.90;;;;;;1916103;75;21080;-80
2023/06/10 14:50:45;;;;;;;2.80;1.60;;;30.60;99.90;;;;;;1915878;75;21102;-79
2023/06/10 14:53:34;;;;;;;3.77;1.20;;;30.60;99.90;;;;;;1925991;73;21590;-79
2023/06/10 14:56:26;;;;;;;3.65;1.35;;;30.80;99.90;;;;;;1923015;73;21064;-79
2023/06/10 14:59:17;;;;;;;2.00;1.45;;;30.50;99.90;;;;;;1916056;75;21114;-80
2023/06/10 15:02:10;;;;;;;2.02;1.40;;;30.40;99.90;;;;;;1932007;73;21102;-79
2023/06/10 15:05:03;;;;;;;2.22;1.50;;;30.40;99.90;;;;;;1926854;73;21154;-78
2023/06/10 15:07:54;;;;;;;1.98;1.17;;;30.60;99.90;;;;;;1921257;73;21106;-80
2023/06/10 15:10:47;;;;;;;1.95;1.40;;;30.90;99.90;;;;;;1916268;75;21062;-79
2023/06/10 15:13:39;;;;;;;2.17;1.25;;;30.70;99.90;;;;;;1916609;75;21609;-78
2023/06/10 15:16:30;;;;;;;2.27;1.35;;;31.20;99.90;;;;;;1915459;74;21094;-78
2023/06/10 15:19:21;;;;;;;1.72;1.25;;;30.80;99.90;;;;;;1911614;74;21665;-78
2023/06/10 15:22:13;;;;;;;2.15;1.30;;;30.90;99.90;;;;;;1925018;73;21156;-78
2023/06/10 15:25:05;;;;;;;3.02;1.47;;;30.90;99.90;;;;;;1916368;75;21102;-79
2023/06/10 15:27:58;;;;;;;1.77;1.40;;;31.20;99.90;;;;;;1903987;75;21210;-79
2023/06/10 15:30:49;;;;;;;1.87;1.35;;;31.30;99.90;;;;;;1903942;75;21154;-77
2023/06/10 15:33:41;;;;;;;1.52;1.37;;;31.30;99.90;;;;;;1916183;75;21598;-78
2023/06/10 15:36:35;;;;;;;2.65;1.50;;;31.30;99.90;;;;;;1916045;75;21125;-78
2023/06/10 15:39:31;;;;;;;2.60;1.35;;;31.80;99.90;;;;;;1915988;75;21492;-78
2023/06/10 15:42:23;;;;;;;2.90;1.52;;;31.90;99.90;;;;;;1928191;73;21176;-79
2023/06/10 15:45:15;;;;;;;2.45;1.05;;;31.80;99.90;;;;;;1919892;73;21125;-77
2023/06/10 15:48:07;;;;;;;1.72;1.17;;;32.30;99.90;;;;;;1903818;75;21193;-80
2023/06/10 15:50:59;;;;;;;2.02;1.32;;;32.00;99.90;;;;;;1903621;75;21122;-78
2023/06/10 15:53:51;;;;;;;1.65;1.25;;;31.90;99.90;;;;;;1903549;75;21095;-78
2023/06/10 15:56:42;;;;;;;2.10;1.20;;;32.30;99.90;;;;;;1903534;74;21102;-78
2023/06/10 15:59:34;;;;;;;1.50;1.20;;;31.60;99.90;;;;;;1926177;74;21133;-79
2023/06/10 16:02:25;;;;;;;1.85;1.30;;;30.40;99.90;;;;;;1903712;75;21600;-77
2023/06/10 16:05:17;;;;;;;1.37;1.10;;;29.80;99.90;;;;;;1918426;74;21187;-78
2023/06/10 16:08:09;;;;;;;3.08;1.30;;;29.40;99.90;;;;;;1918040;73;21169;-78
2023/06/10 16:11:00;;;;;;;1.50;0.88;;;29.10;99.90;;;;;;1919770;73;21118;-78
2023/06/10 16:13:52;;;;;;;1.32;1.00;;;29.00;99.90;;;;;;1928145;73;21151;-77
2023/06/10 16:16:44;;;;;;;2.75;1.40;;;28.70;99.90;;;;;;1903561;75;21595;-77
2023/06/10 16:19:35;;;;;;;1.80;1.27;;;28.50;99.90;;;;;;1903845;75;21547;-78
2023/06/10 16:22:28;;;;;;;1.98;1.20;;;28.20;99.90;;;;;;1921447;73;21133;-77
2023/06/10 16:25:20;;;;;;;2.12;1.25;;;28.10;99.90;;;;;;1927164;73;21091;-77
2023/06/10 16:28:11;;;;;;;3.20;1.65;;;28.20;99.90;;;;;;1916090;75;21057;-77
2023/06/10 16:31:03;;;;;;;1.75;1.30;;;28.20;99.90;;;;;;1903402;75;21187;-78
2023/06/10 16:33:54;;;;;;;1.20;1.00;;;28.10;99.90;;;;;;1915952;75;21617;-78
2023/06/10 16:36:46;;;;;;;1.77;1.10;;;28.10;99.90;;;;;;1916196;75;21585;-77
2023/06/10 16:39:38;;;;;;;1.40;1.30;;;28.10;99.90;;;;;;1903758;75;21135;-78
2023/06/10 16:42:30;;;;;;;1.95;1.10;;;28.10;99.90;;;;;;1916367;75;21197;-78
2023/06/10 16:45:21;;;;;;;5.17;1.30;;;28.50;99.90;;;;;;1916414;75;21090;-77
2023/06/10 16:48:13;;;;;;;1.70;1.00;;;28.90;99.90;;;;;;1916314;75;21105;-78
2023/06/10 16:51:05;;;;;;;1.52;1.07;;;29.60;99.90;;;;;;1903986;75;21124;-78
2023/06/10 16:53:57;;;;;;;1.25;1.00;;;28.90;99.90;;;;;;1929848;73;21614;-77
2023/06/10 16:56:48;;;;;;;2.15;1.00;;;28.20;99.90;;;;;;1906675;74;21209;-77
2023/06/10 16:59:40;;;;;;;1.67;0.88;;;27.60;99.90;;;;;;1926371;74;21098;-78
2023/06/10 17:02:32;;;;;;;1.30;1.00;;;27.20;99.90;;;;;;1903901;75;21179;-78
2023/06/10 17:05:23;;;;;;;1.65;1.10;;;27.10;99.90;;;;;;1919395;74;21098;-77
2023/06/10 17:08:14;;;;;;;1.85;1.12;;;26.90;99.90;;;;;;1904591;74;21110;-77
2023/06/10 17:11:06;;;;;;;1.35;1.10;;;26.90;99.90;;;;;;1916399;75;21103;-77
2023/06/10 17:13:57;;;;;;;1.65;1.10;;;27.00;99.90;;;;;;1938172;73;21110;-77
2023/06/10 17:16:49;;;;;;;2.02;1.25;;;27.00;99.90;;;;;;1920591;74;21115;-77
2023/06/10 17:19:41;;;;;;;1.80;1.10;;;26.60;99.90;;;;;;1934093;73;21155;-78
2023/06/10 17:22:32;;;;;;;2.47;1.15;;;26.60;99.90;;;;;;1921865;73;21202;-77
2023/06/10 17:25:24;;;;;;;2.10;1.40;;;26.60;99.90;;;;;;1927020;73;21173;-77